sensor_id;sensor_type;location;lat;lon;timestamp;temperature;humidity
21540;DHT22;10931;52.164;5.518;2023-07-13T00:01:30;28.50;55.50
21540;DHT22;10931;52.164;5.518;2023-07-13T00:03:57;28.60;55.60
21540;DHT22;10931;52.164;5.518;2023-07-13T00:06:23;28.50;55.50
21540;DHT22;10931;52.164;5.518;2023-07-13T00:08:50;28.50;55.50
21540;DHT22;10931;52.164;5.518;2023-07-13T00:11:19;28.50;55.50
21540;DHT22;10931;52.164;5.518;2023-07-13T00:13:45;28.50;55.60
21540;DHT22;10931;52.164;5.518;2023-07-13T00:16:11;28.50;55.50
21540;DHT22;10931;52.164;5.518;2023-07-13T00:18:39;28.50;55.60
21540;DHT22;10931;52.164;5.518;2023-07-13T00:21:05;28.50;55.60
21540;DHT22;10931;52.164;5.518;2023-07-13T00:23:33;28.50;55.70
21540;DHT22;10931;52.164;5.518;2023-07-13T00:26:00;28.40;55.60
21540;DHT22;10931;52.164;5.518;2023-07-13T00:28:26;28.50;55.60
21540;DHT22;10931;52.164;5.518;2023-07-13T00:30:55;28.40;55.60
21540;DHT22;10931;52.164;5.518;2023-07-13T00:33:23;28.40;55.60
21540;DHT22;10931;52.164;5.518;2023-07-13T00:35:49;28.40;55.60
21540;DHT22;10931;52.164;5.518;2023-07-13T00:38:16;28.40;55.70
21540;DHT22;10931;52.164;5.518;2023-07-13T00:40:47;28.40;55.60
21540;DHT22;10931;52.164;5.518;2023-07-13T00:43:27;28.40;55.60
21540;DHT22;10931;52.164;5.518;2023-07-13T00:48:26;28.30;55.60
21540;DHT22;10931;52.164;5.518;2023-07-13T00:51:01;28.40;55.70
21540;DHT22;10931;52.164;5.518;2023-07-13T00:53:33;28.30;55.60
21540;DHT22;10931;52.164;5.518;2023-07-13T00:55:59;28.40;55.70
21540;DHT22;10931;52.164;5.518;2023-07-13T00:58:28;28.30;55.60
21540;DHT22;10931;52.164;5.518;2023-07-13T01:00:56;28.30;55.60
21540;DHT22;10931;52.164;5.518;2023-07-13T01:03:22;28.30;55.60
21540;DHT22;10931;52.164;5.518;2023-07-13T01:05:57;28.30;55.70
21540;DHT22;10931;52.164;5.518;2023-07-13T01:08:26;28.30;55.70
21540;DHT22;10931;52.164;5.518;2023-07-13T01:10:54;28.30;55.70
21540;DHT22;10931;52.164;5.518;2023-07-13T01:13:20;28.30;55.70
21540;DHT22;10931;52.164;5.518;2023-07-13T01:15:50;28.30;55.70
21540;DHT22;10931;52.164;5.518;2023-07-13T01:18:23;28.30;55.70
21540;DHT22;10931;52.164;5.518;2023-07-13T01:21:01;28.20;55.70
21540;DHT22;10931;52.164;5.518;2023-07-13T01:23:29;28.20;55.70
21540;DHT22;10931;52.164;5.518;2023-07-13T01:25:55;28.20;55.70
21540;DHT22;10931;52.164;5.518;2023-07-13T01:28:23;28.20;55.70
21540;DHT22;10931;52.164;5.518;2023-07-13T01:30:54;28.20;55.70
21540;DHT22;10931;52.164;5.518;2023-07-13T01:33:21;28.20;55.70
21540;DHT22;10931;52.164;5.518;2023-07-13T01:35:50;28.20;55.70
21540;DHT22;10931;52.164;5.518;2023-07-13T01:38:17;28.20;55.70
21540;DHT22;10931;52.164;5.518;2023-07-13T01:40:47;28.10;55.70
21540;DHT22;10931;52.164;5.518;2023-07-13T01:43:13;28.20;55.80
21540;DHT22;10931;52.164;5.518;2023-07-13T01:45:39;28.20;55.70
21540;DHT22;10931;52.164;5.518;2023-07-13T01:48:05;28.10;55.70
21540;DHT22;10931;52.164;5.518;2023-07-13T01:50:34;28.10;55.70
21540;DHT22;10931;52.164;5.518;2023-07-13T01:53:02;28.10;55.70
21540;DHT22;10931;52.164;5.518;2023-07-13T01:55:34;28.10;55.70
21540;DHT22;10931;52.164;5.518;2023-07-13T01:58:01;28.10;55.70
21540;DHT22;10931;52.164;5.518;2023-07-13T02:00:27;28.10;55.70
21540;DHT22;10931;52.164;5.518;2023-07-13T02:02:56;28.00;55.60
21540;DHT22;10931;52.164;5.518;2023-07-13T02:05:29;28.10;55.80
21540;DHT22;10931;52.164;5.518;2023-07-13T02:07:57;28.10;55.80
21540;DHT22;10931;52.164;5.518;2023-07-13T02:10:23;28.00;55.70
21540;DHT22;10931;52.164;5.518;2023-07-13T02:12:55;28.00;55.70
21540;DHT22;10931;52.164;5.518;2023-07-13T02:15:21;28.00;55.70
21540;DHT22;10931;52.164;5.518;2023-07-13T02:17:47;28.00;55.70
21540;DHT22;10931;52.164;5.518;2023-07-13T02:20:12;28.00;55.70
21540;DHT22;10931;52.164;5.518;2023-07-13T02:22:40;28.00;55.70
21540;DHT22;10931;52.164;5.518;2023-07-13T02:25:09;28.00;55.70
21540;DHT22;10931;52.164;5.518;2023-07-13T02:27:35;28.00;55.70
21540;DHT22;10931;52.164;5.518;2023-07-13T02:30:01;28.00;55.70
21540;DHT22;10931;52.164;5.518;2023-07-13T02:32:27;28.00;55.80
21540;DHT22;10931;52.164;5.518;2023-07-13T02:34:55;28.00;55.70
21540;DHT22;10931;52.164;5.518;2023-07-13T02:37:21;28.00;55.80
21540;DHT22;10931;52.164;5.518;2023-07-13T02:39:47;27.90;55.70
21540;DHT22;10931;52.164;5.518;2023-07-13T02:42:17;27.90;55.70
21540;DHT22;10931;52.164;5.518;2023-07-13T02:44:45;27.90;55.70
21540;DHT22;10931;52.164;5.518;2023-07-13T02:47:11;27.90;55.70
21540;DHT22;10931;52.164;5.518;2023-07-13T02:49:38;27.90;55.70
21540;DHT22;10931;52.164;5.518;2023-07-13T02:52:04;27.90;55.70
21540;DHT22;10931;52.164;5.518;2023-07-13T02:54:34;27.90;55.70
21540;DHT22;10931;52.164;5.518;2023-07-13T02:57:05;27.80;55.70
21540;DHT22;10931;52.164;5.518;2023-07-13T02:59:31;27.90;55.80
21540;DHT22;10931;52.164;5.518;2023-07-13T03:02:02;27.80;55.70
21540;DHT22;10931;52.164;5.518;2023-07-13T03:04:28;27.80;55.70
21540;DHT22;10931;52.164;5.518;2023-07-13T03:06:54;27.80;55.70
21540;DHT22;10931;52.164;5.518;2023-07-13T03:09:24;27.80;55.70
21540;DHT22;10931;52.164;5.518;2023-07-13T03:11:56;27.80;55.70
21540;DHT22;10931;52.164;5.518;2023-07-13T03:14:25;27.80;55.70
21540;DHT22;10931;52.164;5.518;2023-07-13T03:16:53;27.80;55.80
21540;DHT22;10931;52.164;5.518;2023-07-13T03:19:19;27.80;55.80
21540;DHT22;10931;52.164;5.518;2023-07-13T03:21:52;27.80;55.80
21540;DHT22;10931;52.164;5.518;2023-07-13T03:24:18;27.70;55.70
21540;DHT22;10931;52.164;5.518;2023-07-13T03:26:43;27.70;55.70
21540;DHT22;10931;52.164;5.518;2023-07-13T05:41:58;27.20;56.20
21540;DHT22;10931;52.164;5.518;2023-07-13T05:44:23;27.20;56.20
21540;DHT22;10931;52.164;5.518;2023-07-13T05:46:49;27.20;56.30
21540;DHT22;10931;52.164;5.518;2023-07-13T05:49:29;27.20;56.30
21540;DHT22;10931;52.164;5.518;2023-07-13T05:52:13;27.20;56.30
21540;DHT22;10931;52.164;5.518;2023-07-13T05:54:39;27.10;56.30
21540;DHT22;10931;52.164;5.518;2023-07-13T05:57:05;27.10;56.30
21540;DHT22;10931;52.164;5.518;2023-07-13T05:59:30;27.20;56.40
21540;DHT22;10931;52.164;5.518;2023-07-13T06:01:58;27.10;56.30
21540;DHT22;10931;52.164;5.518;2023-07-13T06:04:24;27.10;56.30
21540;DHT22;10931;52.164;5.518;2023-07-13T06:06:53;27.10;56.30
21540;DHT22;10931;52.164;5.518;2023-07-13T06:09:19;27.10;56.40
21540;DHT22;10931;52.164;5.518;2023-07-13T06:11:45;27.10;56.40
21540;DHT22;10931;52.164;5.518;2023-07-13T06:14:10;27.10;56.50
21540;DHT22;10931;52.164;5.518;2023-07-13T06:16:36;27.10;56.50
21540;DHT22;10931;52.164;5.518;2023-07-13T06:19:02;27.10;56.50
21540;DHT22;10931;52.164;5.518;2023-07-13T06:21:28;27.10;56.50
21540;DHT22;10931;52.164;5.518;2023-07-13T06:23:53;27.10;56.50
21540;DHT22;10931;52.164;5.518;2023-07-13T06:26:20;27.10;56.60
21540;DHT22;10931;52.164;5.518;2023-07-13T06:28:49;27.10;56.60
21540;DHT22;10931;52.164;5.518;2023-07-13T06:31:15;27.10;56.60
21540;DHT22;10931;52.164;5.518;2023-07-13T06:33:43;27.10;56.60
21540;DHT22;10931;52.164;5.518;2023-07-13T06:36:10;27.10;56.60
21540;DHT22;10931;52.164;5.518;2023-07-13T06:38:36;27.10;56.70
21540;DHT22;10931;52.164;5.518;2023-07-13T06:41:02;27.10;56.70
21540;DHT22;10931;52.164;5.518;2023-07-13T06:43:28;27.10;56.70
21540;DHT22;10931;52.164;5.518;2023-07-13T06:45:55;27.10;56.70
21540;DHT22;10931;52.164;5.518;2023-07-13T06:48:24;27.10;56.70
21540;DHT22;10931;52.164;5.518;2023-07-13T06:50:52;27.00;56.70
21540;DHT22;10931;52.164;5.518;2023-07-13T06:53:21;27.00;56.80
21540;DHT22;10931;52.164;5.518;2023-07-13T06:55:55;27.00;56.80
21540;DHT22;10931;52.164;5.518;2023-07-13T06:58:21;27.00;56.80
21540;DHT22;10931;52.164;5.518;2023-07-13T07:00:53;27.00;56.80
21540;DHT22;10931;52.164;5.518;2023-07-13T07:03:21;27.00;56.80
21540;DHT22;10931;52.164;5.518;2023-07-13T07:06:12;27.00;56.80
21540;DHT22;10931;52.164;5.518;2023-07-13T07:08:38;27.00;56.90
21540;DHT22;10931;52.164;5.518;2023-07-13T07:11:04;27.00;56.90
21540;DHT22;10931;52.164;5.518;2023-07-13T07:13:30;27.00;56.90
21540;DHT22;10931;52.164;5.518;2023-07-13T07:15:58;27.00;56.90
21540;DHT22;10931;52.164;5.518;2023-07-13T07:18:27;27.00;57.00
21540;DHT22;10931;52.164;5.518;2023-07-13T07:20:53;27.00;57.00
21540;DHT22;10931;52.164;5.518;2023-07-13T07:23:19;27.00;57.00
21540;DHT22;10931;52.164;5.518;2023-07-13T07:25:45;27.00;57.00
21540;DHT22;10931;52.164;5.518;2023-07-13T07:28:14;27.00;57.00
21540;DHT22;10931;52.164;5.518;2023-07-13T07:30:44;27.00;57.00
21540;DHT22;10931;52.164;5.518;2023-07-13T07:33:14;27.00;57.00
21540;DHT22;10931;52.164;5.518;2023-07-13T07:35:40;27.00;57.10
21540;DHT22;10931;52.164;5.518;2023-07-13T07:38:06;27.00;57.10
21540;DHT22;10931;52.164;5.518;2023-07-13T07:40:39;27.00;57.10
21540;DHT22;10931;52.164;5.518;2023-07-13T07:43:07;27.00;57.20
21540;DHT22;10931;52.164;5.518;2023-07-13T07:45:33;27.00;57.20
21540;DHT22;10931;52.164;5.518;2023-07-13T07:48:02;27.00;57.20
21540;DHT22;10931;52.164;5.518;2023-07-13T07:50:30;27.00;57.20
21540;DHT22;10931;52.164;5.518;2023-07-13T07:52:59;27.00;57.20
21540;DHT22;10931;52.164;5.518;2023-07-13T07:55:25;27.00;57.20
21540;DHT22;10931;52.164;5.518;2023-07-13T07:57:54;27.00;57.30
21540;DHT22;10931;52.164;5.518;2023-07-13T08:00:36;27.00;57.30
21540;DHT22;10931;52.164;5.518;2023-07-13T08:03:02;27.00;57.30
21540;DHT22;10931;52.164;5.518;2023-07-13T08:05:28;27.00;57.40
21540;DHT22;10931;52.164;5.518;2023-07-13T08:07:57;27.00;57.40
21540;DHT22;10931;52.164;5.518;2023-07-13T08:10:26;27.00;57.40
21540;DHT22;10931;52.164;5.518;2023-07-13T08:12:52;27.00;57.40
21540;DHT22;10931;52.164;5.518;2023-07-13T08:15:18;27.00;57.50
21540;DHT22;10931;52.164;5.518;2023-07-13T08:17:47;26.90;57.40
21540;DHT22;10931;52.164;5.518;2023-07-13T08:20:13;27.00;57.50
21540;DHT22;10931;52.164;5.518;2023-07-13T08:23:07;27.00;57.50
21540;DHT22;10931;52.164;5.518;2023-07-13T08:25:53;27.00;57.60
21540;DHT22;10931;52.164;5.518;2023-07-13T08:28:43;26.90;57.50
21540;DHT22;10931;52.164;5.518;2023-07-13T08:31:09;27.00;57.70
21540;DHT22;10931;52.164;5.518;2023-07-13T08:33:36;27.00;57.70
21540;DHT22;10931;52.164;5.518;2023-07-13T08:36:03;27.00;57.70
21540;DHT22;10931;52.164;5.518;2023-07-13T08:38:30;26.90;57.70
21540;DHT22;10931;52.164;5.518;2023-07-13T08:40:56;26.90;57.70
21540;DHT22;10931;52.164;5.518;2023-07-13T08:43:29;26.90;57.70
21540;DHT22;10931;52.164;5.518;2023-07-13T08:46:21;26.90;57.80
21540;DHT22;10931;52.164;5.518;2023-07-13T08:49:01;26.90;57.80
21540;DHT22;10931;52.164;5.518;2023-07-13T08:54:28;27.00;57.90
21540;DHT22;10931;52.164;5.518;2023-07-13T08:56:57;26.90;57.90
21540;DHT22;10931;52.164;5.518;2023-07-13T08:59:28;26.90;57.90
21540;DHT22;10931;52.164;5.518;2023-07-13T09:04:48;26.90;57.90
21540;DHT22;10931;52.164;5.518;2023-07-13T09:13:32;26.90;58.00
21540;DHT22;10931;52.164;5.518;2023-07-13T09:15:44;26.90;58.40
21540;DHT22;10931;52.164;5.518;2023-07-13T09:20:52;26.90;58.10
21540;DHT22;10931;52.164;5.518;2023-07-13T09:23:22;26.90;58.10
21540;DHT22;10931;52.164;5.518;2023-07-13T09:25:53;26.90;58.10
21540;DHT22;10931;52.164;5.518;2023-07-13T09:28:29;26.90;58.10
21540;DHT22;10931;52.164;5.518;2023-07-13T09:33:43;26.90;58.20
21540;DHT22;10931;52.164;5.518;2023-07-13T09:36:32;26.90;58.20
21540;DHT22;10931;52.164;5.518;2023-07-13T09:39:23;26.90;58.20
21540;DHT22;10931;52.164;5.518;2023-07-13T09:42:13;26.90;58.30
21540;DHT22;10931;52.164;5.518;2023-07-13T09:47:33;26.90;58.30
21540;DHT22;10931;52.164;5.518;2023-07-13T09:50:09;26.90;58.30
21540;DHT22;10931;52.164;5.518;2023-07-13T09:52:46;26.90;58.30
21540;DHT22;10931;52.164;5.518;2023-07-13T09:55:34;26.90;58.40
21540;DHT22;10931;52.164;5.518;2023-07-13T09:58:27;26.90;58.40
21540;DHT22;10931;52.164;5.518;2023-07-13T10:00:57;26.90;58.40
21540;DHT22;10931;52.164;5.518;2023-07-13T10:03:29;26.90;58.40
21540;DHT22;10931;52.164;5.518;2023-07-13T10:06:03;26.90;58.40
21540;DHT22;10931;52.164;5.518;2023-07-13T10:08:35;26.90;58.50
21540;DHT22;10931;52.164;5.518;2023-07-13T10:11:10;26.90;58.50
21540;DHT22;10931;52.164;5.518;2023-07-13T10:14:01;26.90;58.50
21540;DHT22;10931;52.164;5.518;2023-07-13T10:16:29;26.90;58.50
21540;DHT22;10931;52.164;5.518;2023-07-13T10:19:32;26.90;58.60
21540;DHT22;10931;52.164;5.518;2023-07-13T10:22:02;26.90;58.60
21540;DHT22;10931;52.164;5.518;2023-07-13T10:24:37;26.90;58.60
21540;DHT22;10931;52.164;5.518;2023-07-13T10:27:19;26.90;58.70
21540;DHT22;10931;52.164;5.518;2023-07-13T10:32:38;26.90;58.70
21540;DHT22;10931;52.164;5.518;2023-07-13T10:35:05;26.90;58.70
21540;DHT22;10931;52.164;5.518;2023-07-13T10:37:56;26.90;58.70
21540;DHT22;10931;52.164;5.518;2023-07-13T10:40:30;26.90;58.80
21540;DHT22;10931;52.164;5.518;2023-07-13T10:42:59;26.90;58.80
21540;DHT22;10931;52.164;5.518;2023-07-13T10:45:34;26.90;58.80
21540;DHT22;10931;52.164;5.518;2023-07-13T10:48:02;26.90;58.80
21540;DHT22;10931;52.164;5.518;2023-07-13T10:50:30;26.90;58.80
21540;DHT22;10931;52.164;5.518;2023-07-13T10:53:15;26.90;58.90
21540;DHT22;10931;52.164;5.518;2023-07-13T10:58:44;26.90;58.90
21540;DHT22;10931;52.164;5.518;2023-07-13T11:01:15;26.90;59.00
21540;DHT22;10931;52.164;5.518;2023-07-13T11:03:54;26.90;59.00
21540;DHT22;10931;52.164;5.518;2023-07-13T11:06:38;26.90;59.00
21540;DHT22;10931;52.164;5.518;2023-07-13T11:09:32;26.90;59.00
21540;DHT22;10931;52.164;5.518;2023-07-13T11:12:06;26.90;59.00
21540;DHT22;10931;52.164;5.518;2023-07-13T11:14:37;26.90;59.10
21540;DHT22;10931;52.164;5.518;2023-07-13T11:22:52;27.00;59.10
21540;DHT22;10931;52.164;5.518;2023-07-13T11:25:34;26.90;59.10
21540;DHT22;10931;52.164;5.518;2023-07-13T11:28:24;27.00;59.10
21540;DHT22;10931;52.164;5.518;2023-07-13T11:37:08;27.00;59.10
21540;DHT22;10931;52.164;5.518;2023-07-13T11:43:06;27.00;59.20
21540;DHT22;10931;52.164;5.518;2023-07-13T11:45:33;27.00;59.20
21540;DHT22;10931;52.164;5.518;2023-07-13T11:48:00;27.00;59.20
21540;DHT22;10931;52.164;5.518;2023-07-13T11:50:27;27.00;59.20
21540;DHT22;10931;52.164;5.518;2023-07-13T11:52:54;27.00;59.20
21540;DHT22;10931;52.164;5.518;2023-07-13T11:55:22;27.00;59.30
21540;DHT22;10931;52.164;5.518;2023-07-13T11:58:01;27.00;59.30
21540;DHT22;10931;52.164;5.518;2023-07-13T12:04:53;27.00;59.50
21540;DHT22;10931;52.164;5.518;2023-07-13T16:10:38;27.60;59.30
21540;DHT22;10931;52.164;5.518;2023-07-13T16:13:16;27.60;59.30
21540;DHT22;10931;52.164;5.518;2023-07-13T16:15:47;27.60;59.30
21540;DHT22;10931;52.164;5.518;2023-07-13T16:18:18;27.60;59.30
21540;DHT22;10931;52.164;5.518;2023-07-13T16:20:53;27.60;59.30
21540;DHT22;10931;52.164;5.518;2023-07-13T16:23:25;27.60;59.30
21540;DHT22;10931;52.164;5.518;2023-07-13T16:25:54;27.70;59.30
21540;DHT22;10931;52.164;5.518;2023-07-13T16:28:25;27.60;59.20
21540;DHT22;10931;52.164;5.518;2023-07-13T16:30:53;27.60;59.20
21540;DHT22;10931;52.164;5.518;2023-07-13T16:33:48;27.70;59.20
21540;DHT22;10931;52.164;5.518;2023-07-13T16:36:15;27.70;59.10
21540;DHT22;10931;52.164;5.518;2023-07-13T16:38:42;27.70;59.10
21540;DHT22;10931;52.164;5.518;2023-07-13T16:41:08;27.70;59.10
21540;DHT22;10931;52.164;5.518;2023-07-13T16:43:34;27.70;59.10
21540;DHT22;10931;52.164;5.518;2023-07-13T16:46:00;27.70;59.10
21540;DHT22;10931;52.164;5.518;2023-07-13T16:48:29;27.70;59.10
21540;DHT22;10931;52.164;5.518;2023-07-13T16:50:58;27.70;59.10
21540;DHT22;10931;52.164;5.518;2023-07-13T16:53:28;27.70;59.00
21540;DHT22;10931;52.164;5.518;2023-07-13T16:56:05;27.80;59.10
21540;DHT22;10931;52.164;5.518;2023-07-13T16:58:33;27.80;59.10
21540;DHT22;10931;52.164;5.518;2023-07-13T17:04:01;27.80;59.10
21540;DHT22;10931;52.164;5.518;2023-07-13T17:06:37;27.80;59.10
21540;DHT22;10931;52.164;5.518;2023-07-13T17:09:24;27.80;59.10
21540;DHT22;10931;52.164;5.518;2023-07-13T17:11:51;27.80;59.10
21540;DHT22;10931;52.164;5.518;2023-07-13T17:14:28;27.80;59.10
21540;DHT22;10931;52.164;5.518;2023-07-13T17:17:16;27.80;59.10
21540;DHT22;10931;52.164;5.518;2023-07-13T17:19:43;27.80;59.00
21540;DHT22;10931;52.164;5.518;2023-07-13T17:22:16;27.80;59.00
21540;DHT22;10931;52.164;5.518;2023-07-13T17:24:45;27.80;59.00
21540;DHT22;10931;52.164;5.518;2023-07-13T17:27:17;27.80;59.00
21540;DHT22;10931;52.164;5.518;2023-07-13T17:32:38;27.80;59.00
21540;DHT22;10931;52.164;5.518;2023-07-13T17:37:46;27.90;59.00
21540;DHT22;10931;52.164;5.518;2023-07-13T17:40:32;27.80;59.00
21540;DHT22;10931;52.164;5.518;2023-07-13T17:43:03;27.90;59.00
21540;DHT22;10931;52.164;5.518;2023-07-13T17:45:34;27.90;59.00
21540;DHT22;10931;52.164;5.518;2023-07-13T17:48:10;27.90;59.00
21540;DHT22;10931;52.164;5.518;2023-07-13T17:50:41;27.90;58.90
21540;DHT22;10931;52.164;5.518;2023-07-13T17:53:20;27.90;58.90
21540;DHT22;10931;52.164;5.518;2023-07-13T17:55:47;27.90;58.90
21540;DHT22;10931;52.164;5.518;2023-07-13T17:58:16;27.90;58.90
21540;DHT22;10931;52.164;5.518;2023-07-13T18:00:44;27.90;58.90
21540;DHT22;10931;52.164;5.518;2023-07-13T18:03:20;27.90;58.90
21540;DHT22;10931;52.164;5.518;2023-07-13T18:05:51;27.90;58.90
21540;DHT22;10931;52.164;5.518;2023-07-13T18:08:24;27.90;58.90
21540;DHT22;10931;52.164;5.518;2023-07-13T18:10:51;27.90;58.90
21540;DHT22;10931;52.164;5.518;2023-07-13T18:13:22;27.90;58.80
21540;DHT22;10931;52.164;5.518;2023-07-13T18:16:04;27.90;58.80
21540;DHT22;10931;52.164;5.518;2023-07-13T18:18:34;27.90;58.80
21540;DHT22;10931;52.164;5.518;2023-07-13T18:21:06;27.90;58.80
21540;DHT22;10931;52.164;5.518;2023-07-13T18:23:38;27.90;58.80
21540;DHT22;10931;52.164;5.518;2023-07-13T18:26:14;27.90;58.80
21540;DHT22;10931;52.164;5.518;2023-07-13T18:28:44;27.90;58.80
21540;DHT22;10931;52.164;5.518;2023-07-13T18:31:21;27.90;58.70
21540;DHT22;10931;52.164;5.518;2023-07-13T18:33:54;27.90;58.70
21540;DHT22;10931;52.164;5.518;2023-07-13T18:36:24;27.90;58.70
21540;DHT22;10931;52.164;5.518;2023-07-13T18:38:52;27.90;58.70
21540;DHT22;10931;52.164;5.518;2023-07-13T18:41:24;27.90;58.70
21540;DHT22;10931;52.164;5.518;2023-07-13T18:43:50;27.80;58.60
21540;DHT22;10931;52.164;5.518;2023-07-13T18:46:24;27.90;58.70
21540;DHT22;10931;52.164;5.518;2023-07-13T18:49:00;27.80;58.60
21540;DHT22;10931;52.164;5.518;2023-07-13T18:51:34;27.90;58.70
21540;DHT22;10931;52.164;5.518;2023-07-13T18:54:00;27.90;58.70
21540;DHT22;10931;52.164;5.518;2023-07-13T18:56:28;27.90;58.70
21540;DHT22;10931;52.164;5.518;2023-07-13T18:59:09;27.90;58.70
21540;DHT22;10931;52.164;5.518;2023-07-13T19:01:40;27.80;58.60
21540;DHT22;10931;52.164;5.518;2023-07-13T19:04:35;27.90;58.70
21540;DHT22;10931;52.164;5.518;2023-07-13T19:07:11;27.90;58.70
21540;DHT22;10931;52.164;5.518;2023-07-13T19:09:38;27.80;58.60
21540;DHT22;10931;52.164;5.518;2023-07-13T19:12:26;27.80;58.60
21540;DHT22;10931;52.164;5.518;2023-07-13T19:15:17;27.80;58.60
21540;DHT22;10931;52.164;5.518;2023-07-13T19:17:54;27.80;58.60
21540;DHT22;10931;52.164;5.518;2023-07-13T19:20:20;27.80;58.60
21540;DHT22;10931;52.164;5.518;2023-07-13T19:23:05;27.80;58.60
21540;DHT22;10931;52.164;5.518;2023-07-13T19:25:39;27.80;58.60
21540;DHT22;10931;52.164;5.518;2023-07-13T19:28:41;27.80;58.70
21540;DHT22;10931;52.164;5.518;2023-07-13T19:31:29;27.80;58.60
21540;DHT22;10931;52.164;5.518;2023-07-13T19:34:42;27.80;58.60
21540;DHT22;10931;52.164;5.518;2023-07-13T19:37:21;27.80;58.60
21540;DHT22;10931;52.164;5.518;2023-07-13T19:40:14;27.80;58.60
21540;DHT22;10931;52.164;5.518;2023-07-13T19:42:53;27.80;58.60
21540;DHT22;10931;52.164;5.518;2023-07-13T19:45:24;27.80;58.60
21540;DHT22;10931;52.164;5.518;2023-07-13T19:48:06;27.80;58.60
21540;DHT22;10931;52.164;5.518;2023-07-13T19:50:47;27.80;58.60
21540;DHT22;10931;52.164;5.518;2023-07-13T19:53:36;27.80;58.60
21540;DHT22;10931;52.164;5.518;2023-07-13T20:03:52;27.80;58.60
21540;DHT22;10931;52.164;5.518;2023-07-13T20:06:30;27.80;58.60
21540;DHT22;10931;52.164;5.518;2023-07-13T20:09:35;27.80;58.60
21540;DHT22;10931;52.164;5.518;2023-07-13T20:12:18;27.80;58.60
21540;DHT22;10931;52.164;5.518;2023-07-13T20:15:09;27.70;58.60
21540;DHT22;10931;52.164;5.518;2023-07-13T20:17:38;27.70;58.60
21540;DHT22;10931;52.164;5.518;2023-07-13T20:20:36;27.70;58.60
21540;DHT22;10931;52.164;5.518;2023-07-13T20:23:19;27.70;58.60
21540;DHT22;10931;52.164;5.518;2023-07-13T20:26:07;27.70;58.60
21540;DHT22;10931;52.164;5.518;2023-07-13T20:28:49;27.70;58.60
21540;DHT22;10931;52.164;5.518;2023-07-13T20:31:31;27.70;59.20
21540;DHT22;10931;52.164;5.518;2023-07-13T20:34:03;27.70;58.60
21540;DHT22;10931;52.164;5.518;2023-07-13T20:36:29;27.70;58.60
21540;DHT22;10931;52.164;5.518;2023-07-13T20:39:00;27.70;58.60
21540;DHT22;10931;52.164;5.518;2023-07-13T20:41:52;27.70;58.60
21540;DHT22;10931;52.164;5.518;2023-07-13T20:44:21;27.70;58.70
21540;DHT22;10931;52.164;5.518;2023-07-13T20:57:11;27.70;58.60
21540;DHT22;10931;52.164;5.518;2023-07-13T20:59:39;27.60;58.60
21540;DHT22;10931;52.164;5.518;2023-07-13T21:02:35;27.70;58.90
21540;DHT22;10931;52.164;5.518;2023-07-13T21:05:22;27.60;58.50
21540;DHT22;10931;52.164;5.518;2023-07-13T21:07:56;27.60;58.50
21540;DHT22;10931;52.164;5.518;2023-07-13T21:10:24;27.60;58.60
21540;DHT22;10931;52.164;5.518;2023-07-13T21:12:52;27.60;58.50
21540;DHT22;10931;52.164;5.518;2023-07-13T21:15:28;27.60;58.50
21540;DHT22;10931;52.164;5.518;2023-07-13T21:18:00;27.60;58.50
21540;DHT22;10931;52.164;5.518;2023-07-13T21:20:34;27.60;58.50
21540;DHT22;10931;52.164;5.518;2023-07-13T21:23:00;27.60;58.50
21540;DHT22;10931;52.164;5.518;2023-07-13T21:25:31;27.60;58.50
21540;DHT22;10931;52.164;5.518;2023-07-13T21:28:01;27.60;58.50
21540;DHT22;10931;52.164;5.518;2023-07-13T21:30:38;27.60;58.50
21540;DHT22;10931;52.164;5.518;2023-07-13T21:33:17;27.60;58.50
21540;DHT22;10931;52.164;5.518;2023-07-13T21:35:45;27.60;58.50
21540;DHT22;10931;52.164;5.518;2023-07-13T21:40:51;27.60;58.50
21540;DHT22;10931;52.164;5.518;2023-07-13T21:43:20;27.50;58.40
21540;DHT22;10931;52.164;5.518;2023-07-13T21:45:56;27.50;58.40
21540;DHT22;10931;52.164;5.518;2023-07-13T21:48:34;27.50;58.40
21540;DHT22;10931;52.164;5.518;2023-07-13T21:59:17;27.50;58.40
21540;DHT22;10931;52.164;5.518;2023-07-13T22:01:43;27.50;58.40
21540;DHT22;10931;52.164;5.518;2023-07-13T22:04:13;27.50;58.80
21540;DHT22;10931;52.164;5.518;2023-07-13T22:06:41;27.50;58.40
21540;DHT22;10931;52.164;5.518;2023-07-13T22:09:18;27.40;58.30
21540;DHT22;10931;52.164;5.518;2023-07-13T22:11:45;27.50;58.40
21540;DHT22;10931;52.164;5.518;2023-07-13T22:14:14;27.40;58.30
21540;DHT22;10931;52.164;5.518;2023-07-13T22:16:42;27.40;58.30
21540;DHT22;10931;52.164;5.518;2023-07-13T22:19:16;27.50;58.30
21540;DHT22;10931;52.164;5.518;2023-07-13T22:21:56;27.40;58.30
21540;DHT22;10931;52.164;5.518;2023-07-13T22:24:28;27.40;58.30
21540;DHT22;10931;52.164;5.518;2023-07-13T22:26:58;27.40;58.30
21540;DHT22;10931;52.164;5.518;2023-07-13T22:29:29;27.40;58.30
21540;DHT22;10931;52.164;5.518;2023-07-13T22:31:56;27.40;58.30
21540;DHT22;10931;52.164;5.518;2023-07-13T22:34:25;27.40;58.20
21540;DHT22;10931;52.164;5.518;2023-07-13T22:36:50;27.40;58.20
21540;DHT22;10931;52.164;5.518;2023-07-13T22:39:30;27.40;58.20
21540;DHT22;10931;52.164;5.518;2023-07-13T22:41:58;27.40;58.20
21540;DHT22;10931;52.164;5.518;2023-07-13T22:44:25;27.30;58.20
21540;DHT22;10931;52.164;5.518;2023-07-13T22:46:52;27.30;58.20
21540;DHT22;10931;52.164;5.518;2023-07-13T22:49:31;27.30;58.20
21540;DHT22;10931;52.164;5.518;2023-07-13T22:52:08;27.40;58.20
21540;DHT22;10931;52.164;5.518;2023-07-13T22:54:34;27.30;58.20
21540;DHT22;10931;52.164;5.518;2023-07-13T22:57:00;27.30;58.10
21540;DHT22;10931;52.164;5.518;2023-07-13T22:59:55;27.30;58.10
21540;DHT22;10931;52.164;5.518;2023-07-13T23:02:29;27.30;58.10
21540;DHT22;10931;52.164;5.518;2023-07-13T23:08:18;27.30;58.20
21540;DHT22;10931;52.164;5.518;2023-07-13T23:10:57;27.30;58.10
21540;DHT22;10931;52.164;5.518;2023-07-13T23:13:30;27.30;58.10
21540;DHT22;10931;52.164;5.518;2023-07-13T23:15:56;27.20;58.10
21540;DHT22;10931;52.164;5.518;2023-07-13T23:18:24;27.20;58.10
21540;DHT22;10931;52.164;5.518;2023-07-13T23:20:50;27.20;58.10
21540;DHT22;10931;52.164;5.518;2023-07-13T23:23:27;27.20;58.10
21540;DHT22;10931;52.164;5.518;2023-07-13T23:25:53;27.20;58.10
21540;DHT22;10931;52.164;5.518;2023-07-13T23:28:21;27.20;58.10
21540;DHT22;10931;52.164;5.518;2023-07-13T23:30:50;27.20;58.10
21540;DHT22;10931;52.164;5.518;2023-07-13T23:33:26;27.20;58.10
21540;DHT22;10931;52.164;5.518;2023-07-13T23:35:57;27.20;58.10
21540;DHT22;10931;52.164;5.518;2023-07-13T23:38:27;27.20;58.10
21540;DHT22;10931;52.164;5.518;2023-07-13T23:40:53;27.20;58.10
21540;DHT22;10931;52.164;5.518;2023-07-13T23:43:19;27.10;58.00
21540;DHT22;10931;52.164;5.518;2023-07-13T23:45:45;27.10;57.90